createdAt,value
2019-02-16T00:00:43.377Z,0.20
2019-02-16T00:03:09.933Z,0.30
2019-02-16T00:05:36.452Z,0.30
2019-02-16T00:08:03.006Z,0.30
2019-02-16T00:10:29.561Z,0.30
2019-02-16T00:12:56.177Z,0.30
2019-02-16T00:15:22.736Z,0.40
2019-02-16T00:17:49.251Z,0.40
2019-02-16T00:20:15.835Z,0.30
2019-02-16T00:22:42.396Z,0.30
2019-02-16T00:25:08.912Z,0.20
2019-02-16T00:27:36.261Z,0.20
2019-02-16T00:30:03.857Z,0.20
2019-02-16T00:32:30.413Z,0.10
2019-02-16T00:34:56.982Z,0.10
2019-02-16T00:37:23.492Z,0.10
2019-02-16T00:39:50.052Z,0.20
2019-02-16T00:42:16.581Z,0.20
2019-02-16T00:44:43.135Z,0.10
2019-02-16T00:47:09.691Z,0.10
2019-02-16T00:49:36.205Z,0.20
2019-02-16T00:52:02.791Z,0.20
2019-02-16T00:54:29.300Z,0.20
2019-02-16T00:56:55.861Z,0.10
2019-02-16T00:59:22.422Z,0.00
2019-02-16T01:01:48.940Z,0.00
2019-02-16T01:04:15.500Z,-0.10
2019-02-16T01:06:42.116Z,-0.10
2019-02-16T01:09:08.668Z,-0.10
2019-02-16T01:11:35.236Z,-0.10
2019-02-16T01:14:01.748Z,-0.10
2019-02-16T01:16:28.301Z,-0.10
2019-02-16T01:18:54.855Z,-0.10
2019-02-16T01:21:23.032Z,-0.10
2019-02-16T01:23:49.772Z,0.00
2019-02-16T01:26:16.292Z,-0.10
2019-02-16T01:28:42.848Z,-0.10
2019-02-16T01:31:09.408Z,-0.10
2019-02-16T01:33:35.969Z,-0.20
2019-02-16T01:36:02.494Z,-0.20
2019-02-16T01:38:29.048Z,-0.20
2019-02-16T01:40:55.564Z,-0.20
2019-02-16T01:43:22.124Z,-0.20
2019-02-16T01:45:48.680Z,-0.20
2019-02-16T01:48:15.196Z,-0.20
2019-02-16T01:50:41.762Z,-0.20
2019-02-16T01:53:09.420Z,-0.20
2019-02-16T01:55:35.940Z,-0.20
2019-02-16T01:58:02.496Z,-0.20
2019-02-16T02:00:29.061Z,-0.20
2019-02-16T02:02:55.568Z,-0.20
2019-02-16T02:05:22.119Z,-0.20
2019-02-16T02:07:48.680Z,-0.20
2019-02-16T02:10:15.296Z,-0.20
2019-02-16T02:12:41.852Z,-0.20
2019-02-16T02:15:08.821Z,-0.20
2019-02-16T02:17:35.336Z,-0.20
2019-02-16T02:20:01.957Z,-0.10
2019-02-16T02:22:28.509Z,-0.20
2019-02-16T02:24:55.072Z,-0.20
2019-02-16T02:27:21.589Z,-0.20
2019-02-16T02:29:48.141Z,-0.30
2019-02-16T02:32:14.665Z,-0.30
2019-02-16T02:34:41.226Z,-0.30
2019-02-16T02:37:07.782Z,-0.40
2019-02-16T02:39:34.304Z,-0.50
2019-02-16T02:42:00.857Z,-0.50
2019-02-16T02:44:27.418Z,-0.60
2019-02-16T02:46:54.034Z,-0.60
2019-02-16T02:49:20.588Z,-0.70
2019-02-16T02:51:52.226Z,-0.80
2019-02-16T02:54:15.453Z,-0.80
2019-02-16T02:56:42.022Z,-0.80
2019-02-16T02:59:08.580Z,-0.80
2019-02-16T03:01:35.095Z,-0.90
2019-02-16T03:04:01.650Z,-0.90
2019-02-16T03:06:28.163Z,-0.90
2019-02-16T03:08:54.725Z,-1.00
2019-02-16T03:11:21.289Z,-1.00
2019-02-16T03:13:48.745Z,-1.00
2019-02-16T03:16:15.369Z,-1.00
2019-02-16T03:18:41.884Z,-1.00
2019-02-16T03:21:08.450Z,-1.10
2019-02-16T03:23:34.998Z,-1.20
2019-02-16T03:26:09.221Z,-1.40
2019-02-16T03:28:37.594Z,-1.30
2019-02-16T03:31:08.789Z,-1.50
2019-02-16T03:33:46.295Z,-1.50
2019-02-16T03:36:17.609Z,-1.50
2019-02-16T03:38:45.961Z,-1.40
2019-02-16T03:41:12.480Z,-1.20
2019-02-16T03:43:39.031Z,-1.40
2019-02-16T03:46:05.596Z,-1.40
2019-02-16T03:48:32.106Z,-1.40
2019-02-16T03:50:58.660Z,-1.30
2019-02-16T03:53:25.218Z,-1.40
2019-02-16T03:55:51.734Z,-1.40
2019-02-16T03:58:18.290Z,-1.40
2019-02-16T04:00:44.820Z,-1.50
2019-02-16T04:03:11.382Z,-1.50
2019-02-16T04:05:37.932Z,-1.40
2019-02-16T04:08:04.457Z,-1.50
2019-02-16T04:10:31.025Z,-1.50
2019-02-16T04:12:57.542Z,-1.50
2019-02-16T04:15:24.092Z,-1.60
2019-02-16T04:17:50.709Z,-1.60
2019-02-16T04:20:17.265Z,-1.70
2019-02-16T04:22:43.854Z,-1.70
2019-02-16T04:25:10.369Z,-1.70
2019-02-16T04:27:36.929Z,-1.70
2019-02-16T04:30:03.541Z,-1.70
2019-02-16T04:32:30.094Z,-1.70
2019-02-16T04:34:56.621Z,-1.80
2019-02-16T04:37:23.180Z,-1.80
2019-02-16T04:39:49.740Z,-1.80
2019-02-16T04:42:16.257Z,-1.90
2019-02-16T04:44:42.813Z,-2.00
2019-02-16T04:47:09.332Z,-2.00
2019-02-16T04:49:35.890Z,-2.10
2019-02-16T04:52:03.249Z,-2.10
2019-02-16T04:54:29.766Z,-2.10
2019-02-16T04:56:56.315Z,-2.00
2019-02-16T04:59:22.834Z,-1.90
2019-02-16T05:01:49.376Z,-2.00
2019-02-16T05:04:16.189Z,-2.10
2019-02-16T05:06:42.745Z,-2.10
2019-02-16T05:09:09.292Z,-2.10
2019-02-16T05:11:35.823Z,-1.90
2019-02-16T05:14:02.373Z,-1.70
2019-02-16T05:16:28.930Z,-1.80
2019-02-16T05:18:55.451Z,-1.80
2019-02-16T05:21:22.055Z,-1.80
2019-02-16T05:23:48.569Z,-1.80
2019-02-16T05:26:15.128Z,-1.80
2019-02-16T05:28:41.639Z,-1.90
2019-02-16T05:31:08.234Z,-2.00
2019-02-16T05:33:34.796Z,-2.00
2019-02-16T05:36:01.308Z,-2.10
2019-02-16T05:38:27.864Z,-2.10
2019-02-16T05:40:54.380Z,-2.10
2019-02-16T05:43:21.673Z,-2.10
2019-02-16T05:45:48.412Z,-2.00
2019-02-16T05:48:15.037Z,-2.00
2019-02-16T05:50:41.552Z,-2.00
2019-02-16T05:53:08.117Z,-2.00
2019-02-16T05:55:34.677Z,-2.00
2019-02-16T05:58:01.192Z,-2.00
2019-02-16T06:00:29.556Z,-2.00
2019-02-16T06:02:56.069Z,-2.00
2019-02-16T06:05:22.626Z,-2.10
2019-02-16T06:07:49.185Z,-2.10
2019-02-16T06:10:15.701Z,-2.10
2019-02-16T06:12:42.258Z,-2.20
2019-02-16T06:15:09.282Z,-2.30
2019-02-16T06:17:35.836Z,-2.30
2019-02-16T06:20:03.060Z,-2.30
2019-02-16T06:22:30.913Z,-2.30
2019-02-16T06:24:57.474Z,-2.30
2019-02-16T06:27:23.983Z,-2.30
2019-02-16T06:29:50.578Z,-2.30
2019-02-16T06:32:17.204Z,-2.20
2019-02-16T06:34:43.725Z,-2.20
2019-02-16T06:37:22.848Z,-2.20
2019-02-16T06:39:49.604Z,-2.10
2019-02-16T06:42:16.169Z,-2.10
2019-02-16T06:44:44.706Z,-2.10
2019-02-16T06:47:11.259Z,-2.10
2019-02-16T06:49:37.784Z,-2.00
2019-02-16T06:52:04.334Z,-2.00
2019-02-16T06:54:30.847Z,-1.90
2019-02-16T06:57:01.775Z,-2.00
2019-02-16T06:59:28.349Z,-2.10
2019-02-16T07:01:54.896Z,-2.00
2019-02-16T07:04:21.452Z,-2.00
2019-02-16T07:06:47.968Z,-1.90
2019-02-16T07:09:14.529Z,-1.90
2019-02-16T07:11:41.053Z,-1.80
2019-02-16T07:14:07.620Z,-1.70
2019-02-16T07:16:38.784Z,-1.60
2019-02-16T07:19:07.146Z,-1.50
2019-02-16T07:21:33.669Z,-1.20
2019-02-16T07:24:00.260Z,-1.00
2019-02-16T07:26:26.779Z,-0.90
2019-02-16T07:28:53.359Z,-0.80
2019-02-16T07:31:19.883Z,-0.80
2019-02-16T07:33:46.481Z,-0.60
2019-02-16T07:36:13.037Z,-0.60
2019-02-16T07:38:39.563Z,-0.40
2019-02-16T07:41:06.112Z,-0.20
2019-02-16T07:43:39.941Z,0.00
2019-02-16T07:46:14.065Z,0.20
2019-02-16T07:49:00.069Z,0.30
2019-02-16T07:51:28.431Z,0.80
2019-02-16T07:54:08.627Z,1.30
2019-02-16T07:56:48.928Z,1.70
2019-02-16T07:59:20.093Z,2.20
2019-02-16T08:01:51.215Z,2.60
2019-02-16T08:04:25.354Z,2.70
2019-02-16T08:07:02.286Z,3.00
2019-02-16T08:09:30.652Z,3.00
2019-02-16T08:11:58.981Z,3.10
2019-02-16T08:14:29.868Z,3.20
2019-02-16T08:17:00.945Z,3.10
2019-02-16T08:19:29.314Z,3.10
2019-02-16T08:21:57.688Z,3.30
2019-02-16T08:24:41.233Z,3.30
2019-02-16T08:27:25.782Z,3.70
2019-02-16T08:29:54.149Z,3.90
2019-02-16T08:32:31.752Z,3.90
2019-02-16T08:35:00.240Z,4.10
2019-02-16T08:37:44.973Z,4.30
2019-02-16T08:40:30.021Z,4.50
2019-02-16T08:43:01.389Z,4.70
2019-02-16T08:45:35.252Z,4.80
2019-02-16T08:48:09.169Z,4.70
2019-02-16T08:50:37.529Z,4.90
2019-02-16T08:53:20.799Z,5.00
2019-02-16T08:55:49.169Z,5.10
2019-02-16T08:58:33.796Z,5.30
2019-02-16T09:01:13.896Z,5.40
2019-02-16T09:03:57.085Z,5.50
2019-02-16T09:06:31.474Z,5.90
2019-02-16T09:09:00.439Z,6.00
2019-02-16T09:11:34.584Z,6.20
2019-02-16T09:14:12.038Z,6.30
2019-02-16T09:16:43.427Z,6.60
2019-02-16T09:19:13.480Z,6.80
2019-02-16T09:21:44.801Z,7.00
2019-02-16T09:24:19.249Z,7.10
2019-02-16T09:27:04.264Z,7.10
2019-02-16T09:29:32.580Z,7.20
2019-02-16T09:32:06.845Z,7.40
2019-02-16T09:34:35.204Z,7.30
2019-02-16T09:37:03.529Z,7.50
2019-02-16T09:39:37.736Z,7.50
2019-02-16T09:42:11.636Z,7.50
2019-02-16T09:44:39.997Z,7.50
2019-02-16T09:47:08.320Z,7.50
2019-02-16T09:49:52.820Z,7.50
2019-02-16T09:52:21.145Z,7.60
2019-02-16T09:54:58.081Z,7.70
2019-02-16T09:57:26.432Z,7.80
2019-02-16T10:00:00.613Z,7.90
2019-02-16T10:02:28.975Z,8.00
2019-02-16T10:04:57.302Z,8.10
2019-02-16T10:07:25.669Z,8.20
2019-02-16T10:09:53.989Z,8.30
2019-02-16T10:12:25.471Z,8.50
2019-02-16T10:14:56.308Z,8.60
2019-02-16T10:17:26.115Z,8.60
2019-02-16T10:20:00.298Z,8.70
2019-02-16T10:22:31.748Z,8.80
2019-02-16T10:25:00.182Z,8.90
2019-02-16T10:27:28.585Z,9.10
2019-02-16T10:30:13.076Z,9.20
2019-02-16T10:32:56.636Z,9.10
2019-02-16T10:35:28.164Z,9.10
2019-02-16T10:38:02.108Z,9.10
2019-02-16T10:40:36.325Z,9.20
2019-02-16T10:43:04.689Z,9.20
2019-02-16T10:45:49.154Z,9.30
2019-02-16T10:48:17.507Z,9.30
2019-02-16T10:50:45.829Z,9.40
2019-02-16T10:53:14.192Z,9.40
2019-02-16T10:55:51.586Z,9.50
2019-02-16T10:58:25.740Z,9.60
2019-02-16T11:00:59.881Z,9.70
2019-02-16T11:03:39.889Z,9.80
2019-02-16T11:06:17.037Z,9.90
2019-02-16T11:08:50.895Z,10.00
2019-02-16T11:11:19.255Z,10.10
2019-02-16T11:13:47.581Z,10.20
2019-02-16T11:16:19.749Z,10.30
2019-02-16T11:18:50.669Z,10.40
2019-02-16T11:21:24.885Z,10.50
2019-02-16T11:23:56.005Z,10.60
2019-02-16T11:26:30.165Z,10.70
2019-02-16T11:29:15.168Z,10.90
2019-02-16T11:31:52.667Z,11.00
2019-02-16T11:34:33.014Z,11.00
2019-02-16T11:37:01.368Z,11.10
2019-02-16T11:39:46.384Z,11.10
2019-02-16T11:42:14.756Z,11.00
2019-02-16T11:44:54.737Z,10.90
2019-02-16T11:47:26.131Z,11.00
2019-02-16T11:49:57.519Z,11.10
2019-02-16T11:52:37.944Z,11.10
2019-02-16T11:55:07.525Z,11.10
2019-02-16T11:57:35.841Z,11.10
2019-02-16T12:00:08.724Z,11.10
2019-02-16T12:02:39.713Z,11.20
2019-02-16T12:05:13.465Z,11.20
2019-02-16T12:07:47.727Z,11.30
2019-02-16T12:10:16.087Z,11.30
2019-02-16T12:12:47.207Z,11.30
2019-02-16T12:15:15.533Z,11.40
2019-02-16T12:17:58.789Z,11.50
2019-02-16T12:20:33.439Z,11.60
2019-02-16T12:23:15.217Z,11.50
2019-02-16T12:25:43.617Z,11.60
2019-02-16T12:28:14.736Z,11.70
2019-02-16T12:30:49.166Z,11.80
2019-02-16T12:33:33.980Z,12.00
2019-02-16T12:36:02.351Z,12.30
2019-02-16T12:38:34.044Z,12.60
2019-02-16T12:41:02.412Z,12.80
2019-02-16T12:43:30.776Z,12.80
2019-02-16T12:46:07.858Z,13.00
2019-02-16T12:48:44.856Z,13.20
2019-02-16T12:51:18.975Z,13.30
2019-02-16T12:54:03.660Z,13.20
2019-02-16T12:56:32.030Z,13.50
2019-02-16T12:59:03.175Z,13.70
2019-02-16T13:01:31.490Z,13.90
2019-02-16T13:04:11.496Z,13.90
2019-02-16T13:06:39.860Z,13.90
2019-02-16T13:09:14.059Z,14.10
2019-02-16T13:11:54.344Z,13.90
2019-02-16T13:14:34.956Z,13.80
2019-02-16T13:17:06.145Z,14.00
2019-02-16T13:19:43.172Z,14.30
2019-02-16T13:22:11.531Z,14.60
2019-02-16T13:24:54.736Z,14.70
2019-02-16T13:27:25.822Z,14.70
2019-02-16T13:29:55.353Z,14.60
2019-02-16T13:32:29.607Z,14.90
2019-02-16T13:34:57.924Z,14.90
2019-02-16T13:37:32.313Z,14.80
2019-02-16T13:40:00.837Z,14.80
2019-02-16T13:42:37.834Z,14.80
2019-02-16T13:45:07.188Z,14.90
2019-02-16T13:47:41.553Z,14.80
2019-02-16T13:50:10.017Z,14.60
2019-02-16T13:52:53.698Z,14.50
2019-02-16T13:55:33.489Z,14.30
2019-02-16T13:58:00.836Z,14.30
2019-02-16T14:00:32.034Z,14.20
2019-02-16T14:03:15.072Z,14.00
2019-02-16T14:05:45.933Z,14.10
2019-02-16T14:08:17.310Z,14.10
2019-02-16T14:10:54.177Z,14.30
2019-02-16T14:13:34.594Z,14.30
2019-02-16T14:16:02.948Z,14.20
2019-02-16T14:18:29.472Z,14.30
2019-02-16T14:20:56.037Z,14.30
2019-02-16T14:23:22.552Z,14.30
2019-02-16T14:25:49.108Z,14.10
2019-02-16T14:28:15.664Z,14.00
2019-02-16T14:30:42.180Z,13.70
2019-02-16T14:33:08.761Z,13.80
2019-02-16T14:35:35.293Z,13.70
2019-02-16T14:38:12.407Z,13.80
2019-02-16T14:40:38.968Z,13.80
2019-02-16T14:43:05.518Z,13.80
2019-02-16T14:45:33.857Z,13.90
2019-02-16T14:48:00.386Z,13.90
2019-02-16T14:50:26.944Z,13.90
2019-02-16T14:52:53.806Z,14.00
2019-02-16T14:55:20.334Z,14.10
2019-02-16T14:57:46.888Z,14.20
2019-02-16T15:00:13.419Z,14.20
2019-02-16T15:02:39.972Z,14.20
2019-02-16T15:05:07.301Z,14.30
2019-02-16T15:07:33.868Z,14.20
2019-02-16T15:10:00.820Z,13.80
2019-02-16T15:12:27.364Z,13.70
2019-02-16T15:14:53.920Z,13.70
2019-02-16T15:17:20.436Z,13.80
2019-02-16T15:19:47.001Z,13.90
2019-02-16T15:22:13.522Z,13.90
2019-02-16T15:24:40.076Z,13.70
2019-02-16T15:27:06.601Z,13.20
2019-02-16T15:29:33.194Z,12.90
2019-02-16T15:31:59.713Z,12.70
2019-02-16T15:34:26.268Z,12.70
2019-02-16T15:36:52.836Z,12.60
2019-02-16T15:39:19.353Z,12.40
2019-02-16T15:41:45.920Z,12.20
2019-02-16T15:44:12.442Z,11.90
2019-02-16T15:46:38.998Z,11.80
2019-02-16T15:49:05.552Z,11.60
2019-02-16T15:51:32.066Z,11.40
2019-02-16T15:53:58.625Z,11.20
2019-02-16T15:56:25.180Z,10.90
2019-02-16T15:58:51.704Z,10.80
2019-02-16T16:01:18.338Z,10.60
2019-02-16T16:03:44.929Z,10.50
2019-02-16T16:06:11.488Z,10.30
2019-02-16T16:08:39.809Z,10.10
2019-02-16T16:11:08.173Z,10.00
2019-02-16T16:13:42.540Z,9.80
2019-02-16T16:16:13.498Z,9.70
2019-02-16T16:18:47.724Z,9.60
2019-02-16T16:21:22.133Z,9.50
2019-02-16T16:23:51.148Z,9.40
2019-02-16T16:26:28.140Z,9.20
2019-02-16T16:29:14.175Z,9.10
2019-02-16T16:31:51.493Z,9.00
2019-02-16T16:34:19.857Z,8.90
2019-02-16T16:37:03.121Z,8.90
2019-02-16T16:39:40.952Z,8.90
2019-02-16T16:42:12.133Z,8.70
2019-02-16T16:44:43.329Z,8.60
2019-02-16T16:47:14.267Z,8.50
2019-02-16T16:49:45.557Z,8.30
2019-02-16T16:52:16.449Z,8.20
2019-02-16T16:54:53.668Z,8.00
2019-02-16T16:57:22.029Z,7.80
2019-02-16T16:59:53.080Z,7.70
2019-02-16T17:02:27.188Z,7.50
2019-02-16T17:05:01.106Z,7.40
2019-02-16T17:07:32.028Z,7.30
2019-02-16T17:10:00.385Z,7.20
2019-02-16T17:12:40.277Z,7.10
2019-02-16T17:15:23.593Z,7.00
2019-02-16T17:18:00.568Z,6.90
2019-02-16T17:20:31.826Z,6.90
2019-02-16T17:23:02.718Z,6.70
2019-02-16T17:25:39.577Z,6.70
2019-02-16T17:28:07.934Z,6.60
2019-02-16T17:30:36.330Z,6.60
2019-02-16T17:33:16.804Z,6.50
2019-02-16T17:35:45.160Z,6.40
2019-02-16T17:38:16.506Z,6.40
2019-02-16T17:40:47.889Z,6.30
2019-02-16T17:43:16.200Z,6.30
2019-02-16T17:46:00.804Z,6.20
2019-02-16T17:48:44.314Z,6.20
2019-02-16T17:51:18.446Z,6.10
2019-02-16T17:54:08.121Z,5.90
2019-02-16T17:56:48.095Z,5.90
2019-02-16T17:59:25.635Z,5.80
2019-02-16T18:01:53.992Z,5.70
2019-02-16T18:04:28.153Z,5.60
2019-02-16T18:07:05.488Z,5.60
2019-02-16T18:09:33.955Z,5.50
2019-02-16T18:12:08.044Z,5.40
2019-02-16T18:14:36.445Z,5.40
2019-02-16T18:17:20.993Z,5.40
2019-02-16T18:19:55.350Z,5.40
2019-02-16T18:22:29.568Z,5.40
2019-02-16T18:25:06.988Z,5.30
2019-02-16T18:27:41.388Z,5.30
2019-02-16T18:30:12.654Z,5.30
2019-02-16T18:32:41.004Z,5.40
2019-02-16T18:35:09.344Z,5.40
2019-02-16T18:37:40.249Z,5.40
2019-02-16T18:40:08.723Z,5.30
2019-02-16T18:42:46.049Z,5.30
2019-02-16T18:45:14.450Z,5.20
2019-02-16T18:47:51.552Z,5.20
2019-02-16T18:50:22.884Z,5.10
2019-02-16T18:52:54.032Z,5.20
2019-02-16T18:55:30.890Z,5.20
2019-02-16T18:57:59.251Z,5.10
2019-02-16T19:00:30.423Z,5.20
2019-02-16T19:03:01.801Z,5.20
2019-02-16T19:05:30.116Z,5.20
2019-02-16T19:08:13.399Z,5.10
2019-02-16T19:10:50.654Z,5.00
2019-02-16T19:13:35.520Z,4.90
2019-02-16T19:16:03.903Z,4.90
2019-02-16T19:18:32.201Z,4.80
2019-02-16T19:21:00.558Z,4.70
2019-02-16T19:23:43.484Z,4.60
2019-02-16T19:26:14.862Z,4.60
2019-02-16T19:28:52.197Z,4.50
2019-02-16T19:31:32.550Z,4.40
2019-02-16T19:34:00.912Z,4.40
2019-02-16T19:36:38.133Z,4.40
2019-02-16T19:39:09.440Z,4.40
2019-02-16T19:41:55.404Z,4.50
2019-02-16T19:44:29.532Z,4.50
2019-02-16T19:47:06.466Z,4.50
2019-02-16T19:49:40.704Z,4.30
2019-02-16T19:52:10.880Z,4.10
2019-02-16T19:54:44.102Z,4.00
2019-02-16T19:57:28.455Z,3.90
2019-02-16T20:00:02.012Z,3.80
2019-02-16T20:02:29.920Z,3.70
2019-02-16T20:05:00.997Z,3.70
2019-02-16T20:07:31.920Z,3.60
2019-02-16T20:10:02.961Z,3.50
2019-02-16T20:12:33.943Z,3.40
2019-02-16T20:15:04.941Z,3.30
2019-02-16T20:17:33.269Z,3.30
2019-02-16T20:20:13.591Z,3.20
2019-02-16T20:22:56.950Z,3.10
2019-02-16T20:25:40.328Z,3.00
2019-02-16T20:28:14.431Z,2.90
2019-02-16T20:30:54.609Z,3.00
2019-02-16T20:33:31.591Z,2.90
2019-02-16T20:36:04.841Z,2.90
2019-02-16T20:38:39.168Z,3.00
2019-02-16T20:41:13.398Z,3.00
2019-02-16T20:43:53.361Z,3.00
2019-02-16T20:46:38.140Z,3.00
2019-02-16T20:49:06.505Z,2.90
2019-02-16T20:51:38.033Z,2.90
2019-02-16T20:54:15.305Z,2.80
2019-02-16T20:56:43.799Z,2.70
2019-02-16T20:59:28.968Z,2.70
2019-02-16T21:02:00.029Z,2.70
2019-02-16T21:04:28.353Z,2.60
2019-02-16T21:07:02.532Z,2.60
2019-02-16T21:09:39.808Z,2.70
2019-02-16T21:12:24.529Z,2.70
2019-02-16T21:14:55.794Z,2.60
2019-02-16T21:17:26.973Z,2.60
2019-02-16T21:20:04.125Z,2.60
2019-02-16T21:22:35.256Z,2.60
2019-02-16T21:25:09.105Z,2.60
2019-02-16T21:27:37.475Z,2.50
2019-02-16T21:30:23.448Z,2.50
2019-02-16T21:33:00.364Z,2.40
2019-02-16T21:35:45.093Z,2.40
2019-02-16T21:38:13.453Z,2.40
2019-02-16T21:40:44.560Z,2.40
2019-02-16T21:43:16.001Z,2.50
2019-02-16T21:45:59.074Z,2.50
2019-02-16T21:48:33.265Z,2.50
2019-02-16T21:51:01.626Z,2.40
2019-02-16T21:53:35.518Z,2.50
2019-02-16T21:56:06.389Z,2.60
2019-02-16T21:58:40.598Z,2.70
2019-02-16T22:01:17.565Z,2.70
2019-02-16T22:03:48.424Z,2.80
2019-02-16T22:06:16.788Z,2.80
2019-02-16T22:08:48.205Z,2.70
2019-02-16T22:11:19.575Z,2.70
2019-02-16T22:13:46.128Z,2.70
2019-02-16T22:16:12.650Z,2.70
2019-02-16T22:18:39.215Z,2.60
2019-02-16T22:21:05.774Z,2.60
2019-02-16T22:23:32.302Z,2.50
2019-02-16T22:25:58.855Z,2.40
2019-02-16T22:28:30.830Z,2.40
2019-02-16T22:30:53.777Z,2.40
2019-02-16T22:33:20.396Z,2.40
2019-02-16T22:35:46.955Z,2.40
2019-02-16T22:38:13.516Z,2.40
2019-02-16T22:40:40.074Z,2.40
2019-02-16T22:43:06.603Z,2.40
2019-02-16T22:45:33.154Z,2.40
2019-02-16T22:47:59.673Z,2.30
2019-02-16T22:50:26.233Z,2.30
2019-02-16T22:52:52.757Z,2.30
2019-02-16T22:55:19.322Z,2.20
2019-02-16T22:57:45.877Z,2.20
2019-02-16T23:00:16.002Z,2.10
2019-02-16T23:02:43.027Z,2.00
2019-02-16T23:05:09.765Z,2.00
2019-02-16T23:07:36.292Z,1.90
2019-02-16T23:10:04.613Z,1.80
2019-02-16T23:12:31.276Z,1.80
2019-02-16T23:14:57.914Z,1.80
2019-02-16T23:17:24.589Z,1.70
2019-02-16T23:19:51.259Z,1.70
2019-02-16T23:22:17.878Z,1.70
2019-02-16T23:24:44.573Z,1.70
2019-02-16T23:27:11.189Z,1.70
2019-02-16T23:29:37.871Z,1.60
2019-02-16T23:32:04.585Z,1.60
2019-02-16T23:34:31.197Z,1.60
2019-02-16T23:36:57.844Z,1.50
2019-02-16T23:39:24.465Z,1.30
2019-02-16T23:41:51.141Z,1.20
2019-02-16T23:44:17.818Z,1.10
2019-02-16T23:46:44.508Z,1.10
2019-02-16T23:49:11.180Z,1.10
2019-02-16T23:51:37.803Z,1.10
2019-02-16T23:54:04.456Z,1.10
2019-02-16T23:56:31.066Z,1.00
2019-02-16T23:58:57.578Z,0.90
